SBCZ/CZS METAR and TAF weather

Enter ICAO airport designator
Station Type Date Time Source
SBCZ METAR 2019/04/20 22:00 UTC NOAA

SBCZ 202200Z 35002KT 9999 FEW025 BKN100 25/25 Q1010


Station Type Date Time Source
SBCZ Decoded METAR 2019/04/20 22:00 UTC NOAA

Cruzeiro Do Sul, Brazil (SBCZ) 07-38S 072-40W
Apr 20, 2019 - 06:00 PM EDT / 2019.04.20 2200 UTC
Wind: from the N (350 degrees) at 2 MPH (2 KT):0
Visibility: greater than 7 mile(s):0
Sky conditions: mostly cloudy
Temperature: 77 F (25 C)
Dew Point: 77 F (25 C)
Relative Humidity: 100%
Pressure (altimeter): 29.83 in. Hg (1010 hPa)
ob: SBCZ 202200Z 35002KT 9999 FEW025 BKN100 25/25 Q1010
cycle: 22

Station Type Date Time Source
SBCZ TAF 2019/04/20 18:54 UTC NOAA

TAF SBCZ 201600Z 2018/2118 22005KT 8000 SCT025 FEW035TCU TN24/2106Z T X31/2117Z
BECMG 2101/2103 FEW010 PROB40 2112/2114 2000 BR BKN006
BECMG 2114/21 16 14006KT SCT020
RMK PEO

Example: see airport list